Flight Track Log - Related Links

Times and Time Zones

All times are in EST time to prevent confusion due to time zone crossing. See the SKW6345 flight status page for this flight to view local times or setup timezone preferences in your user account.


Time Position Orientation Groundspeed Altitude Reporting Facility
EST Latitude Longitude Course Direction KTS MPH feet Rate Location/Type
Thu 12:50:56 PM 39.2781 -106.8872 72° East 257 296 10,700  Level Denver Center
Thu 12:51:58 PM 39.3069 -106.9589 298° West 239 275 13,700 2,758 Climbing Denver Center
Thu 12:53:00 PM 39.3708 -106.3732 101° East  Level Estimated
Thu 12:53:00 PM 39.3825 -106.9314 16° North 310 357 16,400  Level Denver Center
Thu 12:54:00 PM 39.4077 -106.2491 90° East  Level Estimated
Thu 12:54:02 PM 39.3942 -106.8111 83° East 358 412 18,400  Level Denver Center
Thu 12:55:00 PM 39.4445 -106.1249 90° East  Level Estimated
Thu 12:55:04 PM 39.3736 -106.6447 99° East 390 449 20,600  Level Denver Center
Thu 12:56:00 PM 39.4767 -106.0156 72° East  Level Estimated
Thu 12:56:07 PM 39.3553 -106.5014 99° East 416 479 21,000  Level Denver Center
Thu 12:57:08 PM 39.3494 -106.3361 93° East 415 478 21,000  Level Denver Center
Thu 12:58:10 PM 39.3422 -106.1944 94° East 413 475 21,000 44 Level Denver Center
Thu 12:59:24 PM 39.3339 -106.0442 94° East 425 489 21,100 -44 Climbing Denver Center
Thu 01:00:27 PM 39.3242 -105.8658 94° East 419 482 20,900 -720 Descending Denver Center
Thu 01:01:29 PM 39.3150 -105.6939 94° East 404 465 19,600 -1,113 Descending Denver Center
Thu 01:02:31 PM 39.3608 -105.5603 66° East 414 476 18,600 -1,210 Descending Denver Center
Thu 01:03:33 PM 39.3972 -105.4219 71° East 394 453 17,100 -1,452 Descending Denver Center
Thu 01:04:35 PM 39.4039 -105.2908 86° East 368 423 15,600 -1,355 Descending Denver Center
Thu 01:05:37 PM 39.4092 -105.1625 87° East 360 414 14,300 -1,258 Descending Denver Center
Thu 01:06:39 PM 39.4153 -105.0300 87° East 346 398 13,000 -774 Descending Denver Center
Thu 01:07:41 PM 39.4342 -104.9214 77° East 316 364 12,700 -726 Descending Denver Center
Thu 01:08:43 PM 39.4786 -104.8350 56° Northeast 272 313 11,500 -1,016 Descending Denver Center
Thu 01:09:45 PM 39.5219 -104.7533 55° Northeast 275 316 10,600 -726 Descending Denver Center
Thu 01:10:47 PM 39.5903 -104.7033 29° Northeast 259 298 10,000 -576 Descending Denver Center
Thu 01:11:50 PM 39.6514 -104.6650 26° Northeast 246 283 9,400 -960 Descending Denver Center
Thu 01:12:52 PM 39.7183 -104.6617 North 224 258 8,000 -1,306 Descending Denver Center
Thu 01:13:54 PM 39.7689 -104.6611 360° North 183 211 6,700 -1,016 Descending Denver Center
Thu 01:14:56 PM 39.8100 -104.6606 North 142 163 5,900 -581 Descending Denver Center
Thu 01:15:58 PM 39.8397 -104.6603 360° North 131 151 5,500 -387 Descending Denver Center

Login

Don't have an account? Register now (free) for customized features, flight alerts, and more!